Time;durP1;ratioP1;P1;durP2;ratioP2;P2;SDS_P1;SDS_P2;PMS_P1;PMS_P2;Temp;Humidity;BMP_temperature;BMP_pressure;BME280_temperature;BME280_humidity;BME280_pressure;Samples;Min_cycle;Max_cycle;Signal;HPM_P1;HPM_P2
2022/02/19 00:02:15;;;;;;;8.37;4.67;;;;;;;;;;4982404;28;20277;-57
2022/02/19 00:04:40;;;;;;;7.03;4.47;;;;;;;;;;4982076;28;20031;-55
2022/02/19 00:07:05;;;;;;;7.90;4.83;;;;;;;;;;4982593;28;20050;-56
2022/02/19 00:09:31;;;;;;;6.80;4.75;;;;;;;;;;4982512;28;20811;-55
2022/02/19 00:11:56;;;;;;;7.82;4.45;;;;;;;;;;4982215;28;20092;-56
2022/02/19 00:14:21;;;;;;;7.82;4.57;;;;;;;;;;4982482;28;20052;-56
2022/02/19 00:16:46;;;;;;;7.37;4.70;;;;;;;;;;4992300;28;20033;-57
2022/02/19 00:19:12;;;;;;;7.37;4.20;;;;;;;;;;5001807;28;20780;-56
2022/02/19 00:21:37;;;;;;;9.27;4.83;;;;;;;;;;4984911;28;20523;-56
2022/02/19 00:24:03;;;;;;;7.97;4.95;;;;;;;;;;4982305;28;20027;-57
2022/02/19 00:26:28;;;;;;;8.63;4.72;;;;;;;;;;4964733;28;20041;-56
2022/02/19 00:28:53;;;;;;;6.63;4.30;;;;;;;;;;4982243;28;20801;-56
2022/02/19 00:31:18;;;;;;;9.27;4.60;;;;;;;;;;4982450;28;20030;-56
2022/02/19 00:33:43;;;;;;;6.93;4.40;;;;;;;;;;4981886;28;20069;-57
2022/02/19 00:36:09;;;;;;;7.20;4.43;;;;;;;;;;4985507;28;20276;-56
2022/02/19 00:38:35;;;;;;;7.65;4.30;;;;;;;;;;5001480;28;20041;-56
2022/02/19 00:41:00;;;;;;;8.00;5.00;;;;;;;;;;4990134;28;20429;-56
2022/02/19 00:43:25;;;;;;;8.27;4.57;;;;;;;;;;4981692;28;20281;-56
2022/02/19 00:45:51;;;;;;;6.90;4.70;;;;;;;;;;4981773;28;20084;-56
2022/02/19 00:48:16;;;;;;;7.65;4.80;;;;;;;;;;4992630;28;20057;-55
2022/02/19 00:50:42;;;;;;;7.28;4.50;;;;;;;;;;4983683;28;20034;-56
2022/02/19 00:53:07;;;;;;;8.05;4.55;;;;;;;;;;5000906;28;20398;-55
2022/02/19 00:55:32;;;;;;;8.63;4.93;;;;;;;;;;5001447;28;20110;-57
2022/02/19 00:57:57;;;;;;;8.40;5.10;;;;;;;;;;5000408;28;20022;-57
2022/02/19 01:00:23;;;;;;;9.17;4.77;;;;;;;;;;5001214;28;20265;-56
2022/02/19 01:02:48;;;;;;;6.67;4.53;;;;;;;;;;5000889;28;20268;-56
2022/02/19 01:05:13;;;;;;;9.67;4.97;;;;;;;;;;5001068;28;20269;-56
2022/02/19 01:07:38;;;;;;;7.87;4.80;;;;;;;;;;5000185;28;20661;-57
2022/02/19 01:10:04;;;;;;;7.47;5.10;;;;;;;;;;4981476;28;20034;-56
2022/02/19 01:12:29;;;;;;;8.23;4.55;;;;;;;;;;4981114;28;20261;-57
2022/02/19 01:14:54;;;;;;;7.87;4.63;;;;;;;;;;4980893;28;20026;-56
2022/02/19 01:17:19;;;;;;;9.48;4.95;;;;;;;;;;5009107;28;20268;-56
2022/02/19 01:19:45;;;;;;;9.07;4.70;;;;;;;;;;5002022;28;20018;-56
2022/02/19 01:22:10;;;;;;;8.97;4.90;;;;;;;;;;4995822;28;20901;-56
2022/02/19 01:24:36;;;;;;;7.63;4.45;;;;;;;;;;4984879;28;20277;-56
2022/02/19 01:27:01;;;;;;;7.25;4.10;;;;;;;;;;4991963;28;20091;-56
2022/02/19 01:29:26;;;;;;;8.63;5.07;;;;;;;;;;5000736;28;20482;-56
2022/02/19 01:31:51;;;;;;;7.67;4.73;;;;;;;;;;5000270;28;20667;-56
2022/02/19 01:34:16;;;;;;;7.30;4.60;;;;;;;;;;5000195;28;20382;-56
2022/02/19 01:36:42;;;;;;;8.20;4.80;;;;;;;;;;4999877;28;20338;-56
2022/02/19 01:39:07;;;;;;;8.38;4.70;;;;;;;;;;4999971;28;20320;-56
2022/02/19 01:41:32;;;;;;;7.65;4.53;;;;;;;;;;4999629;28;20033;-56
2022/02/19 01:44:04;;;;;;;6.57;4.47;;;;;;;;;;4999001;28;20465;-56
2022/02/19 01:46:30;;;;;;;6.93;4.45;;;;;;;;;;4999698;28;20025;-56
2022/02/19 01:48:55;;;;;;;7.87;4.70;;;;;;;;;;4999653;28;20512;-54
2022/02/19 01:51:20;;;;;;;7.37;4.77;;;;;;;;;;4999968;28;20492;-58
2022/02/19 01:53:45;;;;;;;8.00;4.53;;;;;;;;;;4999869;28;20492;-58
2022/02/19 01:56:11;;;;;;;6.83;4.37;;;;;;;;;;4978577;28;20101;-56
2022/02/19 01:58:37;;;;;;;7.43;4.20;;;;;;;;;;4980090;28;20287;-58
2022/02/19 02:01:02;;;;;;;8.05;5.00;;;;;;;;;;4962492;28;20028;-56
2022/02/19 02:03:28;;;;;;;7.35;4.57;;;;;;;;;;4980192;28;20571;-56
2022/02/19 02:05:53;;;;;;;8.23;4.72;;;;;;;;;;4979216;28;20023;-55
2022/02/19 02:08:18;;;;;;;9.80;5.00;;;;;;;;;;4985731;28;20085;-56
2022/02/19 02:10:44;;;;;;;6.43;4.60;;;;;;;;;;4978836;28;20281;-56
2022/02/19 02:13:09;;;;;;;7.68;4.75;;;;;;;;;;4990831;28;20473;-56
2022/02/19 02:15:35;;;;;;;7.53;4.90;;;;;;;;;;4999677;28;20045;-57
2022/02/19 02:18:00;;;;;;;8.55;4.85;;;;;;;;;;4996171;28;20061;-56
2022/02/19 02:20:25;;;;;;;8.48;4.55;;;;;;;;;;4946271;28;20265;-56
2022/02/19 02:22:51;;;;;;;7.80;4.18;;;;;;;;;;4962365;28;20030;-56
2022/02/19 02:25:16;;;;;;;6.38;4.38;;;;;;;;;;4979503;28;20038;-55
2022/02/19 02:27:41;;;;;;;5.67;4.13;;;;;;;;;;4976043;28;20098;-55
2022/02/19 02:30:07;;;;;;;7.07;4.07;;;;;;;;;;4999302;28;20018;-56
2022/02/19 02:32:32;;;;;;;6.47;4.22;;;;;;;;;;4982043;28;20779;-56
2022/02/19 02:34:57;;;;;;;7.43;4.90;;;;;;;;;;4998755;28;20021;-56
2022/02/19 02:37:23;;;;;;;6.60;4.30;;;;;;;;;;4999504;28;20064;-56
2022/02/19 02:39:48;;;;;;;7.95;4.63;;;;;;;;;;4999372;28;20478;-55
2022/02/19 02:42:14;;;;;;;7.45;4.07;;;;;;;;;;4999331;28;20034;-56
2022/02/19 02:44:40;;;;;;;6.88;4.50;;;;;;;;;;4998855;28;20440;-56
2022/02/19 02:47:06;;;;;;;6.50;4.05;;;;;;;;;;4999348;28;20040;-56
2022/02/19 02:49:31;;;;;;;7.47;4.20;;;;;;;;;;4978157;28;20041;-57
2022/02/19 02:51:56;;;;;;;7.30;4.03;;;;;;;;;;4998090;28;20022;-56
2022/02/19 02:54:21;;;;;;;7.20;4.40;;;;;;;;;;4999294;28;20033;-56
2022/02/19 02:56:46;;;;;;;7.90;4.17;;;;;;;;;;4989562;28;20274;-56
2022/02/19 02:59:12;;;;;;;6.63;3.70;;;;;;;;;;4994283;28;20030;-57
2022/02/19 03:01:37;;;;;;;5.93;4.00;;;;;;;;;;5002861;28;20264;-58
2022/02/19 03:04:02;;;;;;;6.27;3.93;;;;;;;;;;5002428;28;20279;-57
2022/02/19 03:06:27;;;;;;;7.87;4.53;;;;;;;;;;5002548;28;20847;-57
2022/02/19 03:08:53;;;;;;;8.43;4.50;;;;;;;;;;4998925;28;20866;-57
2022/02/19 03:11:18;;;;;;;6.83;4.17;;;;;;;;;;5002360;28;20276;-57
2022/02/19 03:13:43;;;;;;;7.80;4.45;;;;;;;;;;5002473;28;20281;-57
2022/02/19 03:16:09;;;;;;;6.60;4.28;;;;;;;;;;5002423;28;20576;-58
2022/02/19 03:18:34;;;;;;;6.07;4.00;;;;;;;;;;5002599;28;20416;-58
2022/02/19 03:20:59;;;;;;;6.43;4.20;;;;;;;;;;5002502;28;20322;-58
2022/02/19 03:23:25;;;;;;;7.47;4.43;;;;;;;;;;5002577;28;20381;-57
2022/02/19 03:25:50;;;;;;;6.03;3.70;;;;;;;;;;5002026;28;20268;-58
2022/02/19 03:28:15;;;;;;;6.33;4.07;;;;;;;;;;5002068;28;20433;-55
2022/02/19 03:30:40;;;;;;;7.67;4.60;;;;;;;;;;5002357;28;20451;-58
2022/02/19 03:33:06;;;;;;;7.45;3.88;;;;;;;;;;5002194;28;20281;-57
2022/02/19 03:35:31;;;;;;;6.53;3.53;;;;;;;;;;5002333;28;20435;-57
2022/02/19 03:37:56;;;;;;;7.23;4.00;;;;;;;;;;5002250;28;20265;-57
2022/02/19 03:40:21;;;;;;;6.13;4.10;;;;;;;;;;4984234;28;20315;-57
2022/02/19 03:42:47;;;;;;;8.88;4.57;;;;;;;;;;5001779;28;20285;-57
2022/02/19 03:45:12;;;;;;;7.20;4.60;;;;;;;;;;5002173;28;20021;-55
2022/02/19 03:47:41;;;;;;;7.22;4.40;;;;;;;;;;5001626;28;20292;-57
2022/02/19 03:50:06;;;;;;;6.50;3.60;;;;;;;;;;5001913;28;20305;-55
2022/02/19 03:52:32;;;;;;;6.13;3.97;;;;;;;;;;5002027;28;20295;-56
2022/02/19 03:54:57;;;;;;;7.30;4.22;;;;;;;;;;4984190;28;20061;-56
2022/02/19 03:57:23;;;;;;;6.53;4.43;;;;;;;;;;5001431;28;20022;-56
2022/02/19 03:59:48;;;;;;;5.70;4.03;;;;;;;;;;5001760;28;20025;-57
2022/02/19 04:02:13;;;;;;;7.00;4.10;;;;;;;;;;5002000;28;20029;-56
2022/02/19 04:04:38;;;;;;;7.40;4.40;;;;;;;;;;5001009;28;20267;-57
2022/02/19 04:07:04;;;;;;;6.30;3.83;;;;;;;;;;4983761;28;20688;-57
2022/02/19 04:09:29;;;;;;;7.55;4.72;;;;;;;;;;5001462;28;20420;-57
2022/02/19 04:11:54;;;;;;;7.23;4.07;;;;;;;;;;5000886;28;20037;-57
2022/02/19 04:14:19;;;;;;;5.90;3.70;;;;;;;;;;5001344;28;20026;-57
2022/02/19 04:16:44;;;;;;;6.20;4.07;;;;;;;;;;5001323;28;20273;-56
2022/02/19 04:19:10;;;;;;;7.00;4.13;;;;;;;;;;5001072;28;20037;-55
2022/02/19 04:21:35;;;;;;;6.20;3.90;;;;;;;;;;5001361;28;20281;-54
2022/02/19 04:24:00;;;;;;;7.55;4.00;;;;;;;;;;4983168;28;20029;-57
2022/02/19 04:26:25;;;;;;;7.47;4.30;;;;;;;;;;5000956;28;20083;-55
2022/02/19 04:28:51;;;;;;;6.40;3.93;;;;;;;;;;5001599;28;20387;-56
2022/02/19 04:31:16;;;;;;;6.40;4.07;;;;;;;;;;5001137;28;20277;-56
2022/02/19 04:33:42;;;;;;;6.90;4.18;;;;;;;;;;5000577;28;20279;-56
2022/02/19 04:36:07;;;;;;;7.30;3.90;;;;;;;;;;4998091;28;20033;-56
2022/02/19 04:38:32;;;;;;;6.83;4.00;;;;;;;;;;4988405;28;20030;-56
2022/02/19 04:40:57;;;;;;;6.93;3.73;;;;;;;;;;5001155;28;20284;-56
2022/02/19 04:43:23;;;;;;;6.27;3.87;;;;;;;;;;5000982;28;20273;-56
2022/02/19 04:45:48;;;;;;;5.65;4.13;;;;;;;;;;5000413;28;20760;-56
2022/02/19 04:48:13;;;;;;;7.30;4.03;;;;;;;;;;5000811;28;20042;-55
2022/02/19 04:50:38;;;;;;;7.17;4.10;;;;;;;;;;5000510;28;20057;-56
2022/02/19 04:53:05;;;;;;;5.47;3.50;;;;;;;;;;4998192;28;20049;-56
2022/02/19 04:55:30;;;;;;;5.28;3.58;;;;;;;;;;4989033;28;20040;-55
2022/02/19 04:57:56;;;;;;;6.43;3.95;;;;;;;;;;5000126;28;20741;-55
2022/02/19 05:00:21;;;;;;;5.33;3.50;;;;;;;;;;5000762;28;20026;-56
2022/02/19 05:02:46;;;;;;;6.60;4.10;;;;;;;;;;5000809;28;20273;-57
2022/02/19 05:05:12;;;;;;;6.47;3.43;;;;;;;;;;5000709;28;20142;-56
2022/02/19 05:07:37;;;;;;;6.00;4.10;;;;;;;;;;5000332;28;20680;-56
2022/02/19 05:10:05;;;;;;;6.97;4.03;;;;;;;;;;5000528;28;20030;-55
2022/02/19 05:12:30;;;;;;;6.55;4.03;;;;;;;;;;4982857;28;20356;-57
2022/02/19 05:14:55;;;;;;;6.72;4.20;;;;;;;;;;4999900;28;20496;-56
2022/02/19 05:17:21;;;;;;;6.72;4.30;;;;;;;;;;5000108;28;20497;-56
2022/02/19 05:19:46;;;;;;;6.30;3.80;;;;;;;;;;4989756;28;20560;-55
2022/02/19 05:22:11;;;;;;;5.97;3.92;;;;;;;;;;4978543;28;20803;-56
2022/02/19 05:24:36;;;;;;;6.80;4.13;;;;;;;;;;4988046;28;20041;-56
2022/02/19 05:27:02;;;;;;;5.70;3.80;;;;;;;;;;4999896;28;20022;-56
2022/02/19 05:29:27;;;;;;;6.35;4.30;;;;;;;;;;4981517;28;20092;-54
2022/02/19 05:31:52;;;;;;;6.63;4.07;;;;;;;;;;4977066;28;20017;-54
2022/02/19 05:34:17;;;;;;;6.43;4.00;;;;;;;;;;4998329;28;20878;-54
2022/02/19 05:36:42;;;;;;;6.90;4.13;;;;;;;;;;4999407;28;20265;-55
2022/02/19 05:39:08;;;;;;;6.35;3.78;;;;;;;;;;4999501;28;20268;-55
2022/02/19 05:41:33;;;;;;;6.60;4.20;;;;;;;;;;4996875;28;20512;-56
2022/02/19 05:44:00;;;;;;;6.50;4.30;;;;;;;;;;4999078;28;20715;-55
2022/02/19 05:46:25;;;;;;;7.40;3.85;;;;;;;;;;4999735;28;20535;-56
2022/02/19 05:48:50;;;;;;;5.40;3.53;;;;;;;;;;4980854;28;20042;-55
2022/02/19 05:51:15;;;;;;;6.33;4.00;;;;;;;;;;4999266;28;20136;-56
2022/02/19 05:53:41;;;;;;;6.00;3.77;;;;;;;;;;4999387;28;20034;-56
2022/02/19 05:56:06;;;;;;;7.30;4.13;;;;;;;;;;4998558;28;20593;-56
2022/02/19 05:58:31;;;;;;;6.53;3.88;;;;;;;;;;4996536;28;20277;-54
2022/02/19 06:00:58;;;;;;;6.80;4.23;;;;;;;;;;4998731;28;20032;-56
2022/02/19 06:03:23;;;;;;;6.43;3.97;;;;;;;;;;4998818;28;20663;-56
2022/02/19 06:05:49;;;;;;;5.65;3.72;;;;;;;;;;4998526;28;20030;-56
2022/02/19 06:08:14;;;;;;;6.67;4.27;;;;;;;;;;4997531;28;20505;-57
2022/02/19 06:10:39;;;;;;;6.73;4.07;;;;;;;;;;4998978;28;20133;-56
2022/02/19 06:13:05;;;;;;;9.00;4.32;;;;;;;;;;4998918;28;20264;-56
2022/02/19 06:15:31;;;;;;;6.57;3.80;;;;;;;;;;4998644;28;20111;-57
2022/02/19 06:17:56;;;;;;;6.30;3.90;;;;;;;;;;4998353;28;20491;-56
2022/02/19 06:20:21;;;;;;;6.20;3.50;;;;;;;;;;4998442;28;20014;-57
2022/02/19 06:22:46;;;;;;;6.30;3.93;;;;;;;;;;4996797;28;20029;-56
2022/02/19 06:25:11;;;;;;;6.90;3.93;;;;;;;;;;4997188;28;20279;-56
2022/02/19 06:27:42;;;;;;;6.77;4.03;;;;;;;;;;4998735;28;20042;-55
2022/02/19 06:30:08;;;;;;;7.10;4.05;;;;;;;;;;4979757;28;20022;-55
2022/02/19 06:32:33;;;;;;;5.78;3.83;;;;;;;;;;4980127;28;20073;-56
2022/02/19 06:34:59;;;;;;;6.03;3.50;;;;;;;;;;4992687;28;20030;-55
2022/02/19 06:37:24;;;;;;;6.90;4.10;;;;;;;;;;4989652;28;20266;-56
2022/02/19 06:39:49;;;;;;;6.83;4.23;;;;;;;;;;4993051;28;20285;-56
2022/02/19 06:42:14;;;;;;;6.67;4.40;;;;;;;;;;4992602;28;20830;-57
2022/02/19 06:44:40;;;;;;;6.07;4.00;;;;;;;;;;5001787;28;20473;-56
2022/02/19 06:47:06;;;;;;;6.43;4.15;;;;;;;;;;5002512;28;20292;-56
2022/02/19 06:49:31;;;;;;;5.82;3.92;;;;;;;;;;4993626;28;20031;-55
2022/02/19 06:51:56;;;;;;;6.90;4.40;;;;;;;;;;4988583;28;20038;-56
2022/02/19 06:54:23;;;;;;;6.23;3.83;;;;;;;;;;4988461;28;20038;-56
2022/02/19 06:56:48;;;;;;;7.50;3.97;;;;;;;;;;5002830;28;20277;-56
2022/02/19 06:59:14;;;;;;;6.07;3.97;;;;;;;;;;5003502;28;20473;-56
2022/02/19 07:01:39;;;;;;;6.40;4.07;;;;;;;;;;5003265;28;20295;-57
2022/02/19 07:04:04;;;;;;;7.00;4.37;;;;;;;;;;5002279;28;20029;-58
2022/02/19 07:06:29;;;;;;;5.35;3.58;;;;;;;;;;5003161;28;20303;-57
2022/02/19 07:08:55;;;;;;;4.93;3.42;;;;;;;;;;5002871;28;20038;-58
2022/02/19 07:11:20;;;;;;;7.90;4.60;;;;;;;;;;5002167;28;20033;-57
2022/02/19 07:13:45;;;;;;;7.77;4.30;;;;;;;;;;4986918;28;20818;-58
2022/02/19 07:16:10;;;;;;;6.77;4.10;;;;;;;;;;4988396;28;20728;-58
2022/02/19 07:18:35;;;;;;;7.20;4.20;;;;;;;;;;5002878;28;20265;-59
2022/02/19 07:21:01;;;;;;;6.13;4.43;;;;;;;;;;4996045;28;20073;-57
2022/02/19 07:23:26;;;;;;;6.60;4.20;;;;;;;;;;4992608;28;20276;-56
2022/02/19 07:25:51;;;;;;;6.80;3.97;;;;;;;;;;4966804;28;20022;-56
2022/02/19 07:28:17;;;;;;;6.35;3.75;;;;;;;;;;5002131;28;20042;-56
2022/02/19 07:30:43;;;;;;;7.30;3.95;;;;;;;;;;5003294;28;20022;-56
2022/02/19 07:33:08;;;;;;;6.63;4.18;;;;;;;;;;5002687;28;20029;-56
2022/02/19 07:35:34;;;;;;;5.72;3.90;;;;;;;;;;5002839;28;20394;-57
2022/02/19 07:37:59;;;;;;;7.60;4.30;;;;;;;;;;5002389;28;20037;-57
2022/02/19 07:40:24;;;;;;;7.60;4.32;;;;;;;;;;4981643;28;20165;-59
2022/02/19 07:42:50;;;;;;;6.10;4.07;;;;;;;;;;5000797;28;20048;-56
2022/02/19 07:45:15;;;;;;;7.30;4.20;;;;;;;;;;5001481;28;20272;-56
2022/02/19 07:47:40;;;;;;;8.90;4.43;;;;;;;;;;5001538;28;20108;-54
2022/02/19 07:58:25;;;;;;;8.73;4.32;;;;;;;;;;4986659;28;20040;-54
2022/02/19 08:00:51;;;;;;;8.07;4.28;;;;;;;;;;5001677;28;20404;-56
2022/02/19 08:03:16;;;;;;;7.43;4.50;;;;;;;;;;5001348;28;20029;-56
2022/02/19 08:05:42;;;;;;;7.63;4.53;;;;;;;;;;5001187;28;20056;-56
2022/02/19 08:08:07;;;;;;;8.38;4.65;;;;;;;;;;4999143;28;20038;-56
2022/02/19 08:10:32;;;;;;;7.15;4.22;;;;;;;;;;4981899;28;20026;-57
2022/02/19 08:12:58;;;;;;;9.50;4.63;;;;;;;;;;4981729;28;20038;-56
2022/02/19 08:15:23;;;;;;;6.35;4.43;;;;;;;;;;4982185;28;20014;-57
2022/02/19 08:17:48;;;;;;;10.27;4.83;;;;;;;;;;5014276;28;20486;-57
2022/02/19 08:20:13;;;;;;;7.17;4.33;;;;;;;;;;5000736;28;20277;-57
2022/02/19 08:22:39;;;;;;;8.67;4.40;;;;;;;;;;5000168;28;20033;-58
2022/02/19 08:25:04;;;;;;;7.93;4.20;;;;;;;;;;4993857;28;20284;-58
2022/02/19 08:27:34;;;;;;;8.00;4.78;;;;;;;;;;4980801;28;20327;-56
2022/02/19 08:30:00;;;;;;;8.68;4.63;;;;;;;;;;4998396;28;20497;-59
2022/02/19 08:32:25;;;;;;;8.23;4.80;;;;;;;;;;5001265;28;20076;-58
2022/02/19 08:34:50;;;;;;;7.80;4.30;;;;;;;;;;5001377;28;20307;-57
2022/02/19 08:37:16;;;;;;;7.05;4.15;;;;;;;;;;5000566;28;20026;-57
2022/02/19 08:39:41;;;;;;;6.82;4.35;;;;;;;;;;5001183;28;20033;-56
2022/02/19 08:42:09;;;;;;;6.80;4.57;;;;;;;;;;5000717;28;20053;-56
2022/02/19 08:44:34;;;;;;;6.32;4.32;;;;;;;;;;5001342;28;20277;-56
2022/02/19 08:46:59;;;;;;;6.30;4.13;;;;;;;;;;5000898;28;20117;-56
2022/02/19 08:49:25;;;;;;;6.07;4.03;;;;;;;;;;5000644;28;20553;-57
2022/02/19 08:51:50;;;;;;;6.53;4.13;;;;;;;;;;5000552;28;20033;-59
2022/02/19 08:54:15;;;;;;;6.80;4.60;;;;;;;;;;4996938;28;20034;-57
2022/02/19 08:56:41;;;;;;;7.07;4.67;;;;;;;;;;4991696;28;20029;-57
2022/02/19 08:59:07;;;;;;;8.43;4.70;;;;;;;;;;4991308;28;20022;-56
2022/02/19 09:01:32;;;;;;;8.13;4.43;;;;;;;;;;4994117;28;20041;-58
2022/02/19 09:03:59;;;;;;;8.73;4.80;;;;;;;;;;4981170;28;21019;-59
2022/02/19 09:06:24;;;;;;;6.15;3.90;;;;;;;;;;4992619;28;20026;-59
2022/02/19 09:08:49;;;;;;;9.23;4.57;;;;;;;;;;4988829;28;20548;-58
2022/02/19 09:11:15;;;;;;;6.10;3.90;;;;;;;;;;4982449;28;20114;-58
2022/02/19 09:13:40;;;;;;;6.45;4.38;;;;;;;;;;4995604;28;20087;-59
2022/02/19 09:16:05;;;;;;;7.10;4.20;;;;;;;;;;5000059;28;20464;-57
2022/02/19 09:18:31;;;;;;;7.37;4.40;;;;;;;;;;5000530;28;20030;-56
2022/02/19 09:20:56;;;;;;;6.47;4.10;;;;;;;;;;4991799;28;20281;-57
2022/02/19 09:23:21;;;;;;;6.23;4.20;;;;;;;;;;4993157;28;20041;-57
2022/02/19 09:25:46;;;;;;;7.07;4.73;;;;;;;;;;5000296;28;20021;-56
2022/02/19 09:28:13;;;;;;;5.33;3.97;;;;;;;;;;4999953;28;20727;-57
2022/02/19 09:30:38;;;;;;;6.72;4.68;;;;;;;;;;5000627;28;20464;-56
2022/02/19 09:33:03;;;;;;;7.93;4.97;;;;;;;;;;4999980;28;20014;-56
2022/02/19 09:35:28;;;;;;;7.20;4.78;;;;;;;;;;4999837;28;20278;-57
2022/02/19 09:37:54;;;;;;;7.35;4.55;;;;;;;;;;4999580;28;20109;-57
2022/02/19 09:40:19;;;;;;;8.07;4.40;;;;;;;;;;4998336;28;20034;-57
2022/02/19 09:42:44;;;;;;;7.43;4.30;;;;;;;;;;4992144;28;20038;-55
2022/02/19 09:45:10;;;;;;;5.60;4.20;;;;;;;;;;4980751;28;20318;-54
2022/02/19 09:47:35;;;;;;;6.50;4.60;;;;;;;;;;4966407;28;20441;-57
2022/02/19 09:50:01;;;;;;;7.32;4.25;;;;;;;;;;4996055;28;20373;-56
2022/02/19 09:52:26;;;;;;;7.32;4.43;;;;;;;;;;4999580;28;20076;-55
2022/02/19 09:54:51;;;;;;;18.05;4.88;;;;;;;;;;5000145;28;20071;-61
2022/02/19 09:57:17;;;;;;;6.43;4.30;;;;;;;;;;4999880;28;20045;-54
2022/02/19 09:59:42;;;;;;;7.93;4.40;;;;;;;;;;5000090;28;20025;-56
2022/02/19 10:02:08;;;;;;;7.37;4.07;;;;;;;;;;4999518;28;20036;-53
2022/02/19 10:04:33;;;;;;;6.00;4.03;;;;;;;;;;4999424;28;20291;-55
2022/02/19 10:06:59;;;;;;;6.47;4.18;;;;;;;;;;4998829;28;20018;-55
2022/02/19 10:09:25;;;;;;;7.90;4.50;;;;;;;;;;4996217;28;20452;-55
2022/02/19 10:11:50;;;;;;;5.93;4.05;;;;;;;;;;4994580;28;20041;-53
2022/02/19 10:14:35;;;;;;;7.80;4.30;;;;;;;;;;4990169;28;20010;-55
2022/02/19 10:17:20;;;;;;;6.85;4.03;;;;;;;;;;4998347;28;20690;-54
2022/02/19 10:19:46;;;;;;;6.57;3.95;;;;;;;;;;4983831;28;20022;-53
2022/02/19 10:22:12;;;;;;;6.18;4.03;;;;;;;;;;4997226;28;20022;-53
2022/02/19 10:24:37;;;;;;;7.55;4.55;;;;;;;;;;4999032;28;20041;-55
2022/02/19 10:27:03;;;;;;;5.88;3.75;;;;;;;;;;4996257;28;20010;-56
2022/02/19 10:29:31;;;;;;;5.57;4.10;;;;;;;;;;4999140;28;20259;-55
2022/02/19 10:31:56;;;;;;;5.97;4.13;;;;;;;;;;4978695;28;20018;-56
2022/02/19 10:34:21;;;;;;;6.37;4.10;;;;;;;;;;4998458;28;20073;-56
2022/02/19 10:36:49;;;;;;;7.13;4.10;;;;;;;;;;4998972;28;20330;-56
2022/02/19 10:39:14;;;;;;;7.82;4.10;;;;;;;;;;4999378;28;20428;-54
2022/02/19 10:41:40;;;;;;;6.03;3.95;;;;;;;;;;4980895;28;20030;-55
2022/02/19 10:44:18;;;;;;;6.97;4.28;;;;;;;;;;4997348;28;20489;-54
2022/02/19 10:46:43;;;;;;;7.55;4.30;;;;;;;;;;4999139;28;20068;-55
2022/02/19 10:49:09;;;;;;;5.83;3.50;;;;;;;;;;4999353;28;20069;-55
2022/02/19 10:51:34;;;;;;;6.28;4.30;;;;;;;;;;4999880;28;20060;-55
2022/02/19 10:53:59;;;;;;;7.87;3.37;;;;;;;;;;4998969;28;20381;-56
2022/02/19 10:56:27;;;;;;;7.47;2.85;;;;;;;;;;4999389;28;20275;-56
2022/02/19 10:58:59;;;;;;;6.40;2.92;;;;;;;;;;4982360;28;20118;-54
2022/02/19 11:01:24;;;;;;;5.53;3.10;;;;;;;;;;4999464;28;20216;-56
2022/02/19 11:03:49;;;;;;;7.73;3.07;;;;;;;;;;4999003;28;20025;-55
2022/02/19 11:06:15;;;;;;;6.77;3.37;;;;;;;;;;4999655;28;20041;-55
2022/02/19 11:08:41;;;;;;;8.40;3.38;;;;;;;;;;4999505;28;20044;-53
2022/02/19 11:11:06;;;;;;;5.72;3.33;;;;;;;;;;4965427;28;20266;-55
2022/02/19 11:13:32;;;;;;;6.53;3.17;;;;;;;;;;4999289;28;21483;-55
2022/02/19 11:15:57;;;;;;;8.20;3.50;;;;;;;;;;4981461;28;20057;-55
2022/02/19 11:18:22;;;;;;;7.70;3.97;;;;;;;;;;4982080;28;20412;-55
2022/02/19 11:20:48;;;;;;;6.17;3.53;;;;;;;;;;4984583;28;20273;-54
2022/02/19 11:23:13;;;;;;;6.50;3.50;;;;;;;;;;4965764;28;20027;-55
2022/02/19 11:25:39;;;;;;;7.40;3.97;;;;;;;;;;4966265;28;20037;-55
2022/02/19 11:28:08;;;;;;;7.57;4.22;;;;;;;;;;5000673;28;20048;-55
2022/02/19 11:30:37;;;;;;;7.55;3.55;;;;;;;;;;5002887;28;20495;-56
2022/02/19 11:33:02;;;;;;;6.70;3.75;;;;;;;;;;5002382;28;20045;-55
2022/02/19 11:35:37;;;;;;;5.80;3.50;;;;;;;;;;5001918;28;20061;-54
2022/02/19 11:38:25;;;;;;;7.63;3.80;;;;;;;;;;5002648;28;20033;-56
2022/02/19 11:40:54;;;;;;;6.43;3.30;;;;;;;;;;5002187;28;20865;-55
2022/02/19 11:43:38;;;;;;;6.80;3.67;;;;;;;;;;5002075;28;20030;-55
2022/02/19 11:46:07;;;;;;;5.90;3.50;;;;;;;;;;5002281;28;20564;-56
2022/02/19 11:48:33;;;;;;;6.03;3.38;;;;;;;;;;5002326;28;20046;-56
2022/02/19 11:51:28;;;;;;;6.07;2.97;;;;;;;;;;5002398;28;20079;-56
2022/02/19 11:54:02;;;;;;;8.07;4.22;;;;;;;;;;4980515;28;20599;-56
2022/02/19 11:56:28;;;;;;;6.80;3.65;;;;;;;;;;4990610;28;20476;-54
2022/02/19 11:58:55;;;;;;;6.47;3.13;;;;;;;;;;4994854;28;20433;-55
2022/02/19 12:01:20;;;;;;;6.63;3.60;;;;;;;;;;5002352;28;20129;-56
2022/02/19 12:03:45;;;;;;;6.40;3.25;;;;;;;;;;5001518;28;20058;-56
2022/02/19 12:06:13;;;;;;;6.35;3.13;;;;;;;;;;5002180;28;20021;-59
2022/02/19 12:08:53;;;;;;;6.15;2.40;;;;;;;;;;5001527;28;20041;-54
2022/02/19 12:11:19;;;;;;;6.40;2.60;;;;;;;;;;5008017;28;20030;-54
2022/02/19 12:13:45;;;;;;;8.15;3.78;;;;;;;;;;5007967;28;20018;-54
2022/02/19 12:16:31;;;;;;;5.10;2.42;;;;;;;;;;5003896;28;20052;-54
2022/02/19 12:18:57;;;;;;;7.40;2.75;;;;;;;;;;5001680;28;20484;-58
2022/02/19 12:21:32;;;;;;;8.27;2.92;;;;;;;;;;5001893;28;20030;-55
2022/02/19 12:24:15;;;;;;;5.93;2.42;;;;;;;;;;5001383;28;20026;-58
2022/02/19 12:27:10;;;;;;;7.30;2.85;;;;;;;;;;4987699;28;20470;-57
2022/02/19 12:29:35;;;;;;;7.60;3.05;;;;;;;;;;4980041;28;20065;-57
2022/02/19 12:32:04;;;;;;;6.25;2.40;;;;;;;;;;5000975;28;20554;-58
2022/02/19 12:34:30;;;;;;;7.00;2.47;;;;;;;;;;5001155;28;20029;-57
2022/02/19 12:36:56;;;;;;;6.90;2.40;;;;;;;;;;5001469;28;20030;-57
2022/02/19 12:39:24;;;;;;;6.43;2.47;;;;;;;;;;5000973;28;20037;-56
2022/02/19 12:41:56;;;;;;;6.50;2.63;;;;;;;;;;5000934;28;20022;-56
2022/02/19 12:44:21;;;;;;;10.65;3.67;;;;;;;;;;5001144;28;20091;-55
2022/02/19 12:46:47;;;;;;;5.93;2.45;;;;;;;;;;5000863;28;20113;-58
2022/02/19 12:49:13;;;;;;;6.63;2.35;;;;;;;;;;5000499;28;20535;-57
2022/02/19 12:51:38;;;;;;;7.05;2.88;;;;;;;;;;5000771;28;20022;-57
2022/02/19 12:54:04;;;;;;;5.95;2.30;;;;;;;;;;5000562;28;20026;-56
2022/02/19 12:56:36;;;;;;;7.25;2.92;;;;;;;;;;4996490;28;20070;-58
2022/02/19 12:59:02;;;;;;;5.63;2.58;;;;;;;;;;4990650;28;20554;-57
2022/02/19 13:01:28;;;;;;;6.70;2.33;;;;;;;;;;5001301;28;20022;-57
2022/02/19 13:03:53;;;;;;;6.05;2.50;;;;;;;;;;4979705;28;20272;-58
2022/02/19 13:06:18;;;;;;;7.93;2.60;;;;;;;;;;4999739;28;20018;-56
2022/02/19 13:08:43;;;;;;;6.30;2.60;;;;;;;;;;4983528;28;20299;-56
2022/02/19 13:11:09;;;;;;;6.33;2.17;;;;;;;;;;4991051;28;20034;-56
2022/02/19 13:13:38;;;;;;;7.13;2.60;;;;;;;;;;4976696;28;20036;-57
2022/02/19 13:16:03;;;;;;;8.23;2.75;;;;;;;;;;4993190;28;20026;-56
2022/02/19 13:18:35;;;;;;;8.75;2.30;;;;;;;;;;4996910;28;20072;-56
2022/02/19 13:21:04;;;;;;;6.82;2.63;;;;;;;;;;5000464;28;20022;-57
2022/02/19 13:23:29;;;;;;;4.70;2.20;;;;;;;;;;4998584;28;20650;-57
2022/02/19 13:25:55;;;;;;;6.95;2.80;;;;;;;;;;4987631;28;20072;-56
2022/02/19 13:28:20;;;;;;;9.05;2.60;;;;;;;;;;5000184;28;20520;-55
2022/02/19 13:30:45;;;;;;;5.83;2.50;;;;;;;;;;5000640;28;20042;-57
2022/02/19 13:33:10;;;;;;;5.25;2.50;;;;;;;;;;4979827;28;20060;-56
2022/02/19 13:35:36;;;;;;;6.57;2.73;;;;;;;;;;4994454;28;20040;-56
2022/02/19 13:38:01;;;;;;;10.20;4.15;;;;;;;;;;5000408;28;20241;-57
2022/02/19 13:40:28;;;;;;;6.33;2.70;;;;;;;;;;4977918;28;20356;-56
2022/02/19 13:42:54;;;;;;;6.43;3.05;;;;;;;;;;4983118;28;20413;-57
2022/02/19 13:45:32;;;;;;;6.00;2.70;;;;;;;;;;4991885;28;20396;-57
2022/02/19 13:47:58;;;;;;;10.73;2.90;;;;;;;;;;4999856;28;20417;-56
2022/02/19 13:50:37;;;;;;;7.30;3.22;;;;;;;;;;5000719;28;20117;-57
2022/02/19 13:53:03;;;;;;;5.25;2.90;;;;;;;;;;4998973;28;20033;-56
2022/02/19 13:55:30;;;;;;;5.35;2.70;;;;;;;;;;4991256;28;20561;-57
2022/02/19 13:57:55;;;;;;;7.53;2.95;;;;;;;;;;4984549;28;20113;-57
2022/02/19 14:00:20;;;;;;;7.23;3.23;;;;;;;;;;4997038;28;20456;-56
2022/02/19 14:02:46;;;;;;;7.88;3.28;;;;;;;;;;4986593;28;20549;-56
2022/02/19 14:05:12;;;;;;;5.78;2.63;;;;;;;;;;4982415;28;20018;-57
2022/02/19 14:07:50;;;;;;;6.30;2.80;;;;;;;;;;5000114;28;20034;-55
2022/02/19 14:10:15;;;;;;;8.50;2.85;;;;;;;;;;4999950;28;20041;-56
2022/02/19 14:12:42;;;;;;;8.37;3.00;;;;;;;;;;4981925;28;20025;-58
2022/02/19 14:15:10;;;;;;;8.20;3.00;;;;;;;;;;4999849;28;20795;-56
2022/02/19 14:17:36;;;;;;;7.15;2.70;;;;;;;;;;4999662;28;20034;-56
2022/02/19 14:20:01;;;;;;;7.53;2.72;;;;;;;;;;4997649;28;20038;-56
2022/02/19 14:22:39;;;;;;;8.10;3.03;;;;;;;;;;4992583;28;20045;-58
2022/02/19 14:25:05;;;;;;;6.78;2.72;;;;;;;;;;4997150;28;20072;-57
2022/02/19 14:27:31;;;;;;;9.45;2.90;;;;;;;;;;4992564;28;20030;-58
2022/02/19 14:29:56;;;;;;;10.23;3.20;;;;;;;;;;4982415;28;20517;-57
2022/02/19 14:32:21;;;;;;;6.18;3.10;;;;;;;;;;4986477;28;20026;-57
2022/02/19 14:34:47;;;;;;;7.73;2.80;;;;;;;;;;4999887;28;20021;-55
2022/02/19 14:37:12;;;;;;;7.93;3.40;;;;;;;;;;4999452;28;20296;-58
2022/02/19 14:39:37;;;;;;;8.67;2.80;;;;;;;;;;4978479;28;20053;-57
2022/02/19 14:42:03;;;;;;;7.60;3.20;;;;;;;;;;4963211;28;20050;-57
2022/02/19 14:44:28;;;;;;;7.32;2.90;;;;;;;;;;4998548;28;20771;-58
2022/02/19 14:46:53;;;;;;;5.90;3.33;;;;;;;;;;4998470;28;20328;-56